Time;durP1;ratioP1;P1;durP2;ratioP2;P2;SDS_P1;SDS_P2;PMS_P1;PMS_P2;Temp;Humidity;BMP_temperature;BMP_pressure;BME280_temperature;BME280_humidity;BME280_pressure;Samples;Min_cycle;Max_cycle;Signal;HPM_P1;HPM_P2
2021/03/11 00:03:43;;;;;;;19.17;11.80;;;;;;;;;;10332569;28;20241;-78
2021/03/11 00:08:45;;;;;;;18.60;11.27;;;;;;;;;;10327600;28;20256;-78
2021/03/11 00:13:47;;;;;;;19.00;11.63;;;;;;;;;;10324857;28;20217;-77
2021/03/11 00:18:49;;;;;;;19.00;10.87;;;;;;;;;;10330629;28;20664;-77
2021/03/11 00:23:51;;;;;;;18.40;11.87;;;;;;;;;;10324556;28;20591;-77
2021/03/11 00:28:53;;;;;;;19.00;10.87;;;;;;;;;;10340921;28;20237;-77
2021/03/11 00:33:55;;;;;;;16.87;10.47;;;;;;;;;;10333728;28;20229;-77
2021/03/11 00:38:58;;;;;;;16.77;10.20;;;;;;;;;;10340738;28;20522;-77
2021/03/11 00:44:00;;;;;;;14.93;10.33;;;;;;;;;;10339596;28;20227;-77
2021/03/11 00:49:02;;;;;;;14.20;9.40;;;;;;;;;;10334615;28;20234;-77
2021/03/11 00:54:05;;;;;;;14.13;9.57;;;;;;;;;;10335296;28;20217;-78
2021/03/11 00:59:07;;;;;;;15.53;9.80;;;;;;;;;;10334756;28;20227;-77
2021/03/11 01:04:09;;;;;;;14.10;9.50;;;;;;;;;;10337130;28;20232;-77
2021/03/11 01:09:12;;;;;;;16.47;9.37;;;;;;;;;;10334212;28;20618;-77
2021/03/11 01:14:14;;;;;;;11.87;8.60;;;;;;;;;;10342149;28;20221;-78
2021/03/11 01:19:16;;;;;;;12.37;8.93;;;;;;;;;;10337329;28;20319;-77
2021/03/11 01:24:19;;;;;;;13.50;8.77;;;;;;;;;;10340873;28;20209;-78
2021/03/11 01:29:21;;;;;;;13.60;8.77;;;;;;;;;;10340422;28;20287;-77
2021/03/11 01:34:23;;;;;;;12.37;8.90;;;;;;;;;;10337731;28;20212;-77
2021/03/11 01:39:25;;;;;;;11.23;8.03;;;;;;;;;;10333411;28;20797;-77
2021/03/11 01:44:27;;;;;;;13.27;8.87;;;;;;;;;;10331938;28;20221;-77
2021/03/11 01:49:29;;;;;;;13.17;8.63;;;;;;;;;;10333438;28;20225;-76
2021/03/11 01:54:32;;;;;;;13.23;8.60;;;;;;;;;;10335211;28;20221;-78
2021/03/11 01:59:34;;;;;;;12.10;8.10;;;;;;;;;;10333361;28;20220;-77
2021/03/11 02:04:36;;;;;;;11.13;7.73;;;;;;;;;;10331360;28;20237;-78
2021/03/11 02:09:39;;;;;;;11.67;7.83;;;;;;;;;;10334946;28;20239;-77
2021/03/11 02:14:45;;;;;;;11.77;8.13;;;;;;;;;;10327792;28;20233;-77
2021/03/11 02:20:00;;;;;;;12.97;7.50;;;;;;;;;;10336579;28;20576;-77
2021/03/11 02:25:06;;;;;;;11.53;7.40;;;;;;;;;;10331738;28;20213;-78
2021/03/11 02:30:16;;;;;;;10.43;7.73;;;;;;;;;;10331551;28;20251;-77
2021/03/11 02:35:18;;;;;;;14.00;7.90;;;;;;;;;;10334435;28;20213;-77
2021/03/11 02:40:28;;;;;;;10.00;7.73;;;;;;;;;;10331863;28;20227;-78
2021/03/11 02:45:32;;;;;;;9.87;7.20;;;;;;;;;;10332863;28;20223;-76
2021/03/11 02:50:36;;;;;;;9.50;7.37;;;;;;;;;;10331108;28;20248;-78
2021/03/11 02:55:39;;;;;;;11.33;8.17;;;;;;;;;;10334700;28;20633;-78
2021/03/11 03:00:43;;;;;;;9.87;7.47;;;;;;;;;;10331742;28;21386;-78
2021/03/11 03:05:45;;;;;;;11.07;7.20;;;;;;;;;;10333742;28;20613;-78
2021/03/11 03:10:47;;;;;;;10.73;7.87;;;;;;;;;;10330159;28;20600;-79
2021/03/11 03:15:50;;;;;;;10.97;7.77;;;;;;;;;;10333464;28;20600;-78
2021/03/11 03:20:53;;;;;;;12.20;7.50;;;;;;;;;;10331916;28;20321;-78
2021/03/11 03:25:55;;;;;;;10.97;7.50;;;;;;;;;;10331490;28;20662;-78
2021/03/11 03:30:57;;;;;;;9.93;7.83;;;;;;;;;;10332160;28;20243;-77
2021/03/11 03:35:59;;;;;;;11.47;7.93;;;;;;;;;;10331099;28;20217;-77
2021/03/11 03:41:02;;;;;;;9.57;6.90;;;;;;;;;;10329618;28;20213;-77
2021/03/11 03:46:06;;;;;;;8.73;7.20;;;;;;;;;;10326618;28;20217;-76
2021/03/11 03:51:09;;;;;;;11.83;7.30;;;;;;;;;;10331339;28;20383;-78
2021/03/11 03:56:15;;;;;;;9.97;7.67;;;;;;;;;;10329130;28;20242;-77
2021/03/11 04:01:18;;;;;;;10.80;7.60;;;;;;;;;;10336378;28;20233;-77
2021/03/11 04:06:20;;;;;;;9.40;7.13;;;;;;;;;;10338022;28;20213;-77
2021/03/11 04:11:22;;;;;;;11.27;7.90;;;;;;;;;;10341528;28;20308;-77
2021/03/11 04:16:25;;;;;;;10.03;7.57;;;;;;;;;;10334672;28;20220;-78
2021/03/11 04:21:28;;;;;;;9.53;7.33;;;;;;;;;;10341667;28;20209;-77
2021/03/11 04:26:31;;;;;;;12.37;7.50;;;;;;;;;;10335152;28;20948;-77
2021/03/11 04:31:35;;;;;;;10.70;6.97;;;;;;;;;;10341479;28;20267;-78
2021/03/11 04:36:48;;;;;;;12.30;7.40;;;;;;;;;;10344827;28;20228;-77
2021/03/11 04:41:51;;;;;;;10.60;7.27;;;;;;;;;;10342685;28;20654;-77
2021/03/11 04:46:55;;;;;;;8.27;6.33;;;;;;;;;;10339639;28;20221;-77
2021/03/11 04:51:57;;;;;;;10.17;7.10;;;;;;;;;;10330665;28;20240;-77
2021/03/11 04:57:02;;;;;;;12.47;6.53;;;;;;;;;;10332284;28;20221;-78
2021/03/11 05:02:16;;;;;;;9.83;6.33;;;;;;;;;;10336414;28;20730;-77
2021/03/11 05:18:05;;;;;;;11.33;6.63;;;;;;;;;;10338687;28;20958;-79
2021/03/11 05:23:13;;;;;;;13.23;7.07;;;;;;;;;;10337865;28;20208;-79
2021/03/11 05:28:18;;;;;;;11.73;6.53;;;;;;;;;;10336672;28;20307;-78
2021/03/11 05:33:21;;;;;;;10.73;6.77;;;;;;;;;;10331244;28;20248;-77
2021/03/11 05:38:23;;;;;;;9.00;6.37;;;;;;;;;;10333504;28;20225;-78
2021/03/11 05:43:25;;;;;;;12.67;6.67;;;;;;;;;;10327012;28;20670;-78
2021/03/11 05:48:28;;;;;;;10.77;6.07;;;;;;;;;;10334663;28;20701;-79
2021/03/11 05:53:31;;;;;;;9.00;6.13;;;;;;;;;;10337839;28;20253;-79
2021/03/11 05:58:33;;;;;;;9.07;6.53;;;;;;;;;;10332061;28;20231;-80
2021/03/11 06:03:38;;;;;;;11.33;6.50;;;;;;;;;;10338792;28;20243;-80
2021/03/11 06:08:40;;;;;;;10.00;5.47;;;;;;;;;;10326961;28;20217;-80
2021/03/11 06:13:55;;;;;;;11.50;6.10;;;;;;;;;;10342925;28;20639;-80
2021/03/11 06:19:18;;;;;;;9.40;5.73;;;;;;;;;;10332401;28;20555;-80
2021/03/11 06:24:22;;;;;;;9.43;5.47;;;;;;;;;;10331152;28;20308;-80
2021/03/11 06:29:35;;;;;;;8.90;5.23;;;;;;;;;;10330184;28;20283;-80
2021/03/11 06:34:43;;;;;;;9.83;5.13;;;;;;;;;;10334643;28;20220;-80
2021/03/11 06:40:14;;;;;;;8.67;4.67;;;;;;;;;;10331454;28;20228;-80
2021/03/11 06:45:29;;;;;;;10.60;4.10;;;;;;;;;;10334533;28;20213;-80
2021/03/11 06:50:32;;;;;;;6.43;3.50;;;;;;;;;;10331456;28;20252;-78
2021/03/11 06:55:34;;;;;;;5.87;3.50;;;;;;;;;;10335581;28;20217;-79
2021/03/11 07:01:03;;;;;;;7.73;3.20;;;;;;;;;;10334768;28;20600;-79
2021/03/11 07:06:06;;;;;;;9.07;3.10;;;;;;;;;;10325469;28;20282;-80
2021/03/11 07:11:14;;;;;;;8.13;3.10;;;;;;;;;;10326290;28;20264;-80
2021/03/11 07:16:26;;;;;;;8.73;3.03;;;;;;;;;;10334353;28;20256;-80
2021/03/11 07:21:41;;;;;;;8.13;3.17;;;;;;;;;;10330875;28;20630;-81
2021/03/11 07:27:06;;;;;;;11.60;3.53;;;;;;;;;;10331667;28;20220;-79
2021/03/11 07:32:08;;;;;;;13.70;4.10;;;;;;;;;;10332421;28;20259;-79
2021/03/11 07:37:15;;;;;;;18.27;3.70;;;;;;;;;;10325015;28;20221;-79
2021/03/11 07:42:18;;;;;;;18.60;3.53;;;;;;;;;;10332456;28;20232;-80
2021/03/11 07:47:27;;;;;;;17.30;4.07;;;;;;;;;;10327098;28;20212;-80
2021/03/11 07:52:46;;;;;;;20.60;4.43;;;;;;;;;;10329703;28;20248;-79
2021/03/11 07:57:48;;;;;;;15.40;4.10;;;;;;;;;;10334716;28;20243;-80
2021/03/11 08:02:52;;;;;;;19.90;4.03;;;;;;;;;;10332340;28;20241;-80
2021/03/11 08:08:12;;;;;;;17.67;4.23;;;;;;;;;;10334068;28;20219;-80
2021/03/11 08:13:30;;;;;;;18.20;4.27;;;;;;;;;;10328248;28;20232;-80
2021/03/11 08:18:44;;;;;;;16.03;4.03;;;;;;;;;;10331510;28;20217;-79
2021/03/11 08:23:53;;;;;;;19.03;4.00;;;;;;;;;;10322104;28;20300;-80
2021/03/11 08:28:56;;;;;;;17.90;3.80;;;;;;;;;;10331288;28;20230;-79
2021/03/11 08:34:00;;;;;;;20.30;4.33;;;;;;;;;;10323320;28;20229;-79
2021/03/11 08:39:26;;;;;;;20.83;4.50;;;;;;;;;;10329598;28;20217;-79
2021/03/11 08:44:45;;;;;;;17.23;3.70;;;;;;;;;;10325399;28;20717;-79
2021/03/11 08:49:48;;;;;;;20.20;4.30;;;;;;;;;;10341514;28;20239;-79
2021/03/11 08:54:50;;;;;;;19.30;4.37;;;;;;;;;;10336135;28;20209;-80
2021/03/11 08:59:53;;;;;;;18.53;4.27;;;;;;;;;;10334148;28;20705;-78
2021/03/11 09:04:55;;;;;;;22.20;5.13;;;;;;;;;;10340131;28;20240;-78
2021/03/11 09:09:58;;;;;;;30.87;4.37;;;;;;;;;;10341356;28;20244;-78
2021/03/11 09:15:02;;;;;;;24.10;5.10;;;;;;;;;;10336128;28;20217;-78
2021/03/11 09:20:05;;;;;;;26.67;4.77;;;;;;;;;;10338382;28;20635;-78
2021/03/11 09:25:08;;;;;;;21.30;4.63;;;;;;;;;;10337589;28;20217;-78
2021/03/11 09:30:12;;;;;;;24.27;5.00;;;;;;;;;;10340995;28;20232;-79
2021/03/11 09:35:15;;;;;;;33.10;5.77;;;;;;;;;;10331770;28;20218;-79
2021/03/11 09:40:27;;;;;;;28.13;4.87;;;;;;;;;;10335320;28;20209;-78
2021/03/11 09:45:33;;;;;;;23.40;5.20;;;;;;;;;;10336468;28;20214;-78
2021/03/11 09:50:36;;;;;;;24.57;4.60;;;;;;;;;;10336888;28;20935;-78
2021/03/11 09:55:43;;;;;;;20.63;3.83;;;;;;;;;;10332118;28;20231;-78
2021/03/11 10:00:50;;;;;;;21.37;4.20;;;;;;;;;;10338408;28;20291;-78
2021/03/11 10:05:56;;;;;;;20.43;4.90;;;;;;;;;;10326964;28;20325;-78
2021/03/11 10:10:59;;;;;;;19.40;4.70;;;;;;;;;;10333921;28;20237;-78
2021/03/11 10:16:02;;;;;;;16.23;4.30;;;;;;;;;;10331375;28;20208;-78
2021/03/11 10:21:13;;;;;;;19.30;4.40;;;;;;;;;;10336908;28;20229;-78
2021/03/11 10:26:21;;;;;;;19.13;4.37;;;;;;;;;;10338231;28;20598;-78
2021/03/11 10:31:28;;;;;;;25.13;4.60;;;;;;;;;;10323629;28;21077;-78
2021/03/11 10:36:30;;;;;;;21.17;4.70;;;;;;;;;;10337377;28;20212;-78
2021/03/11 10:41:33;;;;;;;25.10;4.83;;;;;;;;;;10335372;28;20205;-78
2021/03/11 10:46:37;;;;;;;25.17;5.70;;;;;;;;;;10337207;28;20220;-79
2021/03/11 10:51:39;;;;;;;24.87;5.07;;;;;;;;;;10347302;28;20237;-79
2021/03/11 10:57:03;;;;;;;24.80;5.13;;;;;;;;;;10340201;28;20221;-79
2021/03/11 11:02:12;;;;;;;28.77;5.33;;;;;;;;;;10336310;28;20602;-79
2021/03/11 11:07:17;;;;;;;23.30;4.93;;;;;;;;;;10343983;28;20335;-78
2021/03/11 11:12:22;;;;;;;24.97;5.20;;;;;;;;;;10340329;28;20247;-79
2021/03/11 11:17:26;;;;;;;28.33;5.53;;;;;;;;;;10340599;28;20296;-79
2021/03/11 11:22:28;;;;;;;24.37;5.27;;;;;;;;;;10350987;28;20331;-78
2021/03/11 11:27:30;;;;;;;26.63;5.13;;;;;;;;;;10339931;28;20217;-79
2021/03/11 11:32:33;;;;;;;23.87;5.40;;;;;;;;;;10336272;28;20528;-78
2021/03/11 11:37:38;;;;;;;26.10;5.13;;;;;;;;;;10334892;28;20261;-79
2021/03/11 11:42:49;;;;;;;26.60;5.97;;;;;;;;;;10329855;28;20279;-79
2021/03/11 11:47:52;;;;;;;25.33;5.50;;;;;;;;;;10332057;28;20235;-79
2021/03/11 11:52:55;;;;;;;19.37;4.83;;;;;;;;;;10332138;28;20636;-79
2021/03/11 11:57:57;;;;;;;27.63;5.67;;;;;;;;;;10332150;28;20213;-79
2021/03/11 12:03:01;;;;;;;29.33;6.30;;;;;;;;;;10326042;28;20233;-79
2021/03/11 12:08:04;;;;;;;25.47;5.50;;;;;;;;;;10328885;28;20779;-78
2021/03/11 12:13:11;;;;;;;28.30;5.87;;;;;;;;;;10338235;28;20314;-79
2021/03/11 12:18:14;;;;;;;25.40;5.47;;;;;;;;;;10332509;28;20212;-78
2021/03/11 12:23:17;;;;;;;24.20;4.93;;;;;;;;;;10333629;28;20213;-79
2021/03/11 12:28:19;;;;;;;27.07;5.87;;;;;;;;;;10337886;28;20597;-79
2021/03/11 12:33:22;;;;;;;27.00;5.13;;;;;;;;;;10335676;28;20252;-78
2021/03/11 12:38:24;;;;;;;20.67;4.67;;;;;;;;;;10339364;28;20225;-78
2021/03/11 12:43:26;;;;;;;27.70;4.90;;;;;;;;;;10332487;28;21474;-78
2021/03/11 12:48:34;;;;;;;28.47;5.60;;;;;;;;;;10333137;28;20215;-78
2021/03/11 12:53:45;;;;;;;30.30;5.57;;;;;;;;;;10334438;28;20232;-78
2021/03/11 12:58:48;;;;;;;24.70;4.80;;;;;;;;;;10342977;28;20231;-78
2021/03/11 13:03:57;;;;;;;26.97;6.07;;;;;;;;;;10338223;28;20237;-78
2021/03/11 13:09:00;;;;;;;28.87;5.13;;;;;;;;;;10336536;28;20295;-79
2021/03/11 13:14:05;;;;;;;24.97;5.30;;;;;;;;;;10337882;28;20250;-79
2021/03/11 13:19:13;;;;;;;28.53;5.30;;;;;;;;;;10338374;28;20209;-79
2021/03/11 13:24:20;;;;;;;23.53;5.43;;;;;;;;;;10329949;28;20685;-79
2021/03/11 13:29:24;;;;;;;20.83;4.43;;;;;;;;;;10339963;28;20225;-78
2021/03/11 13:34:47;;;;;;;17.37;4.77;;;;;;;;;;10343494;28;20323;-79
2021/03/11 13:39:50;;;;;;;24.57;4.60;;;;;;;;;;10338926;28;20225;-77
2021/03/11 13:44:52;;;;;;;21.27;5.77;;;;;;;;;;10334258;28;20695;-78
2021/03/11 13:49:55;;;;;;;26.40;5.17;;;;;;;;;;10337056;28;20235;-79
2021/03/11 13:55:01;;;;;;;16.37;3.70;;;;;;;;;;10328946;28;20232;-79
2021/03/11 14:00:04;;;;;;;21.50;3.83;;;;;;;;;;10338108;28;20213;-79
2021/03/11 14:05:07;;;;;;;11.33;2.93;;;;;;;;;;10334706;28;20259;-78
2021/03/11 14:10:10;;;;;;;14.33;3.40;;;;;;;;;;10329350;28;20236;-78
2021/03/11 14:15:12;;;;;;;10.50;2.50;;;;;;;;;;10344486;28;20221;-78
2021/03/11 14:20:15;;;;;;;18.50;3.37;;;;;;;;;;10342079;28;20696;-78
2021/03/11 14:25:17;;;;;;;22.90;4.30;;;;;;;;;;10332422;28;20225;-79
2021/03/11 14:30:20;;;;;;;23.37;4.43;;;;;;;;;;10331807;28;20239;-78
2021/03/11 14:35:23;;;;;;;24.03;4.87;;;;;;;;;;10330314;28;21177;-79
2021/03/11 14:40:25;;;;;;;24.10;5.43;;;;;;;;;;10324750;28;20217;-78
2021/03/11 14:45:27;;;;;;;23.20;5.50;;;;;;;;;;10347168;28;20606;-77
2021/03/11 14:50:31;;;;;;;25.00;5.00;;;;;;;;;;10326049;28;20239;-78
2021/03/11 14:55:34;;;;;;;25.13;5.47;;;;;;;;;;10334214;28;20217;-77
2021/03/11 15:00:36;;;;;;;22.17;4.80;;;;;;;;;;10329904;28;20603;-79
2021/03/11 15:05:43;;;;;;;27.17;5.50;;;;;;;;;;10330615;28;20240;-78
2021/03/11 15:10:48;;;;;;;24.33;5.10;;;;;;;;;;10330030;28;20575;-78
2021/03/11 15:15:52;;;;;;;23.33;4.97;;;;;;;;;;10320438;28;20209;-77
2021/03/11 15:20:54;;;;;;;20.20;4.70;;;;;;;;;;10328900;28;20235;-79
2021/03/11 15:26:02;;;;;;;25.57;4.73;;;;;;;;;;10338237;28;20213;-77
2021/03/11 15:31:05;;;;;;;19.30;4.20;;;;;;;;;;10328116;28;20769;-79
2021/03/11 15:36:22;;;;;;;16.13;3.43;;;;;;;;;;10332636;28;20229;-79
2021/03/11 15:41:31;;;;;;;15.20;3.33;;;;;;;;;;10337577;28;20303;-79
2021/03/11 15:46:37;;;;;;;16.63;3.77;;;;;;;;;;10327462;28;20220;-79
2021/03/11 15:51:42;;;;;;;22.60;4.20;;;;;;;;;;10326121;28;20646;-79
2021/03/11 15:56:56;;;;;;;21.43;4.50;;;;;;;;;;10335404;28;20363;-79
2021/03/11 16:01:58;;;;;;;23.00;4.23;;;;;;;;;;10339770;28;20240;-78
2021/03/11 16:07:02;;;;;;;21.83;4.70;;;;;;;;;;10337832;28;20701;-79
2021/03/11 16:12:06;;;;;;;24.37;4.63;;;;;;;;;;10346194;28;20241;-79
2021/03/11 16:17:18;;;;;;;20.60;4.43;;;;;;;;;;10335169;28;20703;-79
2021/03/11 16:22:27;;;;;;;18.30;3.50;;;;;;;;;;10343656;28;20736;-78
2021/03/11 16:27:30;;;;;;;17.00;3.60;;;;;;;;;;10342036;28;20663;-78
2021/03/11 16:32:32;;;;;;;12.90;3.27;;;;;;;;;;10337705;28;20319;-78
2021/03/11 16:37:34;;;;;;;17.37;3.77;;;;;;;;;;10336897;28;20226;-79
2021/03/11 16:42:37;;;;;;;11.50;2.83;;;;;;;;;;10338764;28;20209;-79
2021/03/11 16:47:40;;;;;;;10.47;2.57;;;;;;;;;;10336952;28;20217;-79
2021/03/11 16:52:42;;;;;;;7.57;2.30;;;;;;;;;;10338008;28;20247;-77
2021/03/11 16:57:45;;;;;;;8.13;2.60;;;;;;;;;;10335327;28;20223;-79
2021/03/11 17:02:47;;;;;;;8.00;2.40;;;;;;;;;;10334507;28;20243;-80
2021/03/11 17:07:49;;;;;;;11.37;2.80;;;;;;;;;;10332099;28;20701;-78
2021/03/11 17:12:52;;;;;;;15.17;2.93;;;;;;;;;;10339581;28;20248;-77
2021/03/11 17:17:57;;;;;;;16.70;3.90;;;;;;;;;;10339001;28;20221;-78
2021/03/11 17:22:59;;;;;;;15.13;3.20;;;;;;;;;;10333349;28;20213;-81
2021/03/11 17:28:08;;;;;;;15.70;3.47;;;;;;;;;;10334108;28;20665;-80
2021/03/11 17:33:15;;;;;;;17.40;3.47;;;;;;;;;;10327558;28;20240;-81
2021/03/11 17:38:18;;;;;;;14.93;3.60;;;;;;;;;;10331284;28;20450;-81
2021/03/11 17:43:42;;;;;;;22.33;3.90;;;;;;;;;;10320984;28;20217;-81
2021/03/11 17:48:45;;;;;;;18.47;4.13;;;;;;;;;;10329208;28;20310;-82
2021/03/11 17:59:42;;;;;;;19.07;4.53;;;;;;;;;;10312575;28;20217;-81
2021/03/11 18:15:51;;;;;;;17.90;3.87;;;;;;;;;;10242718;28;20224;-79
2021/03/11 18:38:31;;;;;;;22.60;4.50;;;;;;;;;;10231694;28;20222;-80
2021/03/11 18:43:39;;;;;;;17.23;3.73;;;;;;;;;;10332697;28;20216;-79
2021/03/11 18:48:40;;;;;;;18.77;4.07;;;;;;;;;;10326591;28;20254;-81
2021/03/11 18:59:34;;;;;;;15.57;3.60;;;;;;;;;;10324858;28;20216;-81
2021/03/11 19:04:38;;;;;;;8.73;2.67;;;;;;;;;;10313184;28;20791;-81
2021/03/11 19:09:43;;;;;;;11.90;2.83;;;;;;;;;;10322959;28;20214;-81
2021/03/11 19:14:45;;;;;;;12.90;2.60;;;;;;;;;;10319839;28;20237;-79
2021/03/11 19:19:54;;;;;;;8.90;2.50;;;;;;;;;;10325546;28;20264;-80
2021/03/11 19:24:59;;;;;;;7.80;2.40;;;;;;;;;;10318275;28;20213;-80
2021/03/11 19:30:09;;;;;;;7.17;2.00;;;;;;;;;;10319507;28;20595;-81
2021/03/11 19:35:12;;;;;;;9.73;1.90;;;;;;;;;;10318540;28;20713;-81
2021/03/11 19:40:16;;;;;;;4.73;1.77;;;;;;;;;;10320634;28;20217;-81
2021/03/11 19:45:18;;;;;;;6.83;2.20;;;;;;;;;;10324144;28;20217;-81
2021/03/11 19:50:20;;;;;;;6.33;1.97;;;;;;;;;;10321129;28;20227;-79
2021/03/11 19:55:23;;;;;;;9.77;2.47;;;;;;;;;;10321799;28;20241;-79
2021/03/11 20:00:26;;;;;;;7.87;1.90;;;;;;;;;;10314566;28;20232;-79
2021/03/11 20:05:29;;;;;;;4.93;1.60;;;;;;;;;;10318427;28;20233;-80
2021/03/11 20:10:34;;;;;;;9.37;1.80;;;;;;;;;;10325496;28;20217;-80
2021/03/11 20:15:36;;;;;;;7.47;1.73;;;;;;;;;;10317471;28;20224;-78
2021/03/11 20:31:48;;;;;;;5.20;1.80;;;;;;;;;;10318894;28;20264;-79
2021/03/11 20:36:56;;;;;;;6.13;1.80;;;;;;;;;;10322461;28;20228;-80
2021/03/11 20:42:33;;;;;;;11.33;2.10;;;;;;;;;;10314300;28;20487;-79
2021/03/11 20:53:17;;;;;;;11.50;2.60;;;;;;;;;;10345323;28;20380;-80
2021/03/11 21:04:36;;;;;;;12.03;2.60;;;;;;;;;;10333306;28;20224;-80
2021/03/11 21:09:56;;;;;;;10.80;2.80;;;;;;;;;;10346389;28;20244;-82
2021/03/11 21:14:59;;;;;;;13.40;3.20;;;;;;;;;;10338034;28;20615;-80
2021/03/11 21:20:01;;;;;;;12.50;2.70;;;;;;;;;;10336397;28;20221;-79
2021/03/11 21:25:04;;;;;;;11.70;2.47;;;;;;;;;;10344916;28;20312;-78
2021/03/11 21:30:09;;;;;;;8.20;2.40;;;;;;;;;;10338844;28;20726;-79
2021/03/11 21:35:12;;;;;;;11.93;2.70;;;;;;;;;;10341851;28;20260;-78
2021/03/11 21:40:17;;;;;;;13.57;2.40;;;;;;;;;;10329900;28;20255;-79
2021/03/11 21:45:21;;;;;;;11.47;2.57;;;;;;;;;;10329734;28;20212;-79
2021/03/11 21:50:24;;;;;;;12.87;2.60;;;;;;;;;;10339367;28;20236;-79
2021/03/11 21:55:51;;;;;;;14.17;2.90;;;;;;;;;;10333930;28;20221;-79
2021/03/11 22:00:58;;;;;;;12.63;2.90;;;;;;;;;;10340079;28;20221;-79
2021/03/11 22:06:14;;;;;;;15.70;3.03;;;;;;;;;;10334322;28;20219;-80
2021/03/11 22:11:32;;;;;;;18.50;3.10;;;;;;;;;;10331905;28;20228;-79
2021/03/11 22:17:08;;;;;;;12.03;3.00;;;;;;;;;;10329979;28;20209;-79
2021/03/11 22:22:12;;;;;;;16.87;3.20;;;;;;;;;;10331407;28;20756;-79
2021/03/11 22:27:14;;;;;;;11.50;2.73;;;;;;;;;;10337412;28;20247;-80
2021/03/11 22:32:22;;;;;;;16.30;2.67;;;;;;;;;;10332819;28;20232;-79
2021/03/11 22:43:17;;;;;;;13.63;2.67;;;;;;;;;;10333568;28;20248;-79
2021/03/11 22:48:28;;;;;;;11.30;2.93;;;;;;;;;;10331104;28;20223;-79
2021/03/11 22:53:43;;;;;;;13.80;2.83;;;;;;;;;;10323917;28;20279;-79
2021/03/11 22:58:45;;;;;;;10.77;2.67;;;;;;;;;;10330349;28;20244;-79
2021/03/11 23:03:48;;;;;;;9.80;2.30;;;;;;;;;;10332995;28;20233;-79
2021/03/11 23:08:52;;;;;;;11.47;2.33;;;;;;;;;;10325519;28;20229;-79
2021/03/11 23:13:54;;;;;;;11.40;2.40;;;;;;;;;;10335658;28;20241;-78
2021/03/11 23:19:04;;;;;;;10.87;2.60;;;;;;;;;;10328932;28;20215;-79
2021/03/11 23:24:07;;;;;;;11.87;2.93;;;;;;;;;;10333280;28;20223;-79
2021/03/11 23:29:10;;;;;;;9.17;2.27;;;;;;;;;;10327779;28;20738;-80
2021/03/11 23:34:14;;;;;;;9.17;2.23;;;;;;;;;;10333539;28;20240;-79
2021/03/11 23:39:18;;;;;;;9.80;2.70;;;;;;;;;;10327877;28;20225;-79
2021/03/11 23:50:19;;;;;;;13.23;2.53;;;;;;;;;;10328467;28;20229;-79
